createdAt,value
2022-08-11T00:02:40.547Z,34.62
2022-08-11T00:05:09.843Z,34.20
2022-08-11T00:07:49.362Z,34.54
2022-08-11T00:10:20.244Z,35.60
2022-08-11T00:12:53.798Z,34.79
2022-08-11T00:15:21.162Z,34.76
2022-08-11T00:18:09.977Z,35.00
2022-08-11T00:21:04.860Z,35.22
2022-08-11T00:23:43.183Z,34.71
2022-08-11T00:26:10.764Z,34.61
2022-08-11T00:28:37.816Z,34.51
2022-08-11T00:31:11.207Z,34.90
2022-08-11T00:33:44.832Z,34.88
2022-08-11T00:36:15.581Z,35.62
2022-08-11T00:38:44.619Z,35.29
2022-08-11T00:41:23.996Z,35.00
2022-08-11T00:43:59.607Z,35.07
2022-08-11T00:46:26.138Z,35.15
2022-08-11T00:49:14.052Z,36.08
2022-08-11T00:52:16.204Z,35.48
2022-08-11T00:55:28.894Z,35.27
2022-08-11T00:58:26.440Z,35.66
2022-08-11T01:01:13.644Z,36.01
2022-08-11T01:03:59.036Z,36.31
2022-08-11T01:07:13.854Z,36.04
2022-08-11T01:09:52.739Z,35.95
2022-08-11T01:12:24.667Z,36.54
2022-08-11T01:15:25.746Z,36.80
2022-08-11T01:18:36.978Z,36.89
2022-08-11T01:21:12.425Z,37.29
2022-08-11T01:24:28.721Z,36.83
2022-08-11T01:27:47.723Z,37.77
2022-08-11T01:30:47.858Z,37.83
2022-08-11T01:33:36.217Z,38.27
2022-08-11T01:36:36.356Z,39.22
2022-08-11T01:39:08.835Z,38.23
2022-08-11T01:42:33.683Z,38.46
2022-08-11T01:45:13.326Z,37.97
2022-08-11T01:47:52.729Z,38.45
2022-08-11T01:50:57.831Z,38.73
2022-08-11T01:53:47.571Z,39.62
2022-08-11T01:56:26.527Z,39.26
2022-08-11T01:59:36.668Z,38.57
2022-08-11T02:02:21.842Z,38.59
2022-08-11T02:05:11.161Z,38.99
2022-08-11T02:07:57.095Z,38.46
2022-08-11T02:11:28.149Z,38.81
2022-08-11T02:13:59.381Z,38.63
2022-08-11T02:17:03.009Z,39.05
2022-08-11T02:19:57.385Z,39.27
2022-08-11T02:23:07.697Z,39.33
2022-08-11T02:26:05.066Z,39.75
2022-08-11T02:28:53.017Z,39.80
2022-08-11T02:32:28.707Z,39.96
2022-08-11T02:35:45.838Z,39.65
2022-08-11T02:38:28.149Z,39.43
2022-08-11T02:41:31.979Z,39.33
2022-08-11T02:44:10.692Z,39.32
2022-08-11T02:46:56.449Z,38.82
2022-08-11T02:50:07.669Z,38.96
2022-08-11T02:53:17.541Z,39.05
2022-08-11T02:55:58.392Z,39.50
2022-08-11T02:58:42.070Z,39.93
2022-08-11T03:01:33.289Z,39.16
2022-08-11T03:04:13.896Z,39.60
2022-08-11T03:07:28.610Z,39.89
2022-08-11T03:11:11.925Z,40.03
2022-08-11T03:14:24.698Z,39.80
2022-08-11T03:17:00.608Z,39.64
2022-08-11T03:19:42.331Z,39.80
2022-08-11T03:22:33.148Z,39.92
2022-08-11T03:25:45.832Z,39.86
2022-08-11T03:28:26.353Z,39.97
2022-08-11T03:31:06.859Z,40.21
2022-08-11T03:34:05.528Z,40.13
2022-08-11T03:37:06.813Z,40.75
2022-08-11T03:40:04.457Z,40.05
2022-08-11T03:42:44.154Z,41.49
2022-08-11T03:45:25.185Z,41.28
2022-08-11T03:48:09.645Z,41.29
2022-08-11T03:50:55.653Z,41.03
2022-08-11T03:53:34.596Z,40.98
2022-08-11T03:56:19.217Z,40.46
2022-08-11T03:59:07.187Z,40.22
2022-08-11T04:02:11.049Z,40.57
2022-08-11T04:05:10.277Z,41.17
2022-08-11T04:07:59.961Z,40.63
2022-08-11T04:10:35.418Z,40.42
2022-08-11T04:13:20.029Z,40.01
2022-08-11T04:16:33.553Z,41.17
2022-08-11T04:19:38.401Z,41.26
2022-08-11T04:22:32.621Z,40.69
2022-08-11T04:25:51.052Z,40.78
2022-08-11T04:28:50.190Z,40.32
2022-08-11T04:31:50.424Z,40.12
2022-08-11T04:35:06.546Z,40.31
2022-08-11T04:37:51.310Z,39.99
2022-08-11T04:40:40.422Z,40.33
2022-08-11T04:43:25.726Z,40.21
2022-08-11T04:46:24.717Z,41.35
2022-08-11T04:53:24.073Z,40.04
2022-08-11T04:56:41.867Z,40.03
2022-08-11T04:59:45.870Z,40.09
2022-08-11T05:02:51.207Z,39.31
2022-08-11T05:05:32.110Z,39.74
2022-08-11T05:08:21.874Z,41.29
2022-08-11T05:11:25.611Z,39.80
2022-08-11T05:14:19.569Z,39.60
2022-08-11T05:17:14.030Z,39.68
2022-08-11T05:20:04.593Z,39.95
2022-08-11T05:22:50.494Z,39.89
2022-08-11T05:26:44.420Z,40.25
2022-08-11T05:29:19.530Z,39.89
2022-08-11T05:32:14.224Z,39.44
2022-08-11T05:34:55.235Z,39.66
2022-08-11T05:37:27.092Z,40.45
2022-08-11T05:40:17.974Z,39.44
2022-08-11T05:43:09.348Z,39.12
2022-08-11T05:46:02.628Z,38.71
2022-08-11T05:48:52.730Z,39.01
2022-08-11T05:51:38.699Z,39.69
2022-08-11T05:54:28.156Z,38.79
2022-08-11T05:57:02.306Z,38.11
2022-08-11T05:59:29.612Z,37.37
2022-08-11T06:02:06.046Z,37.83
2022-08-11T06:04:34.461Z,37.29
2022-08-11T06:07:06.306Z,37.36
2022-08-11T06:09:39.139Z,37.33
2022-08-11T06:12:18.146Z,37.48
2022-08-11T06:14:46.222Z,37.01
2022-08-11T06:17:17.020Z,37.27
2022-08-11T06:19:47.999Z,36.68
2022-08-11T06:22:21.642Z,37.15
2022-08-11T06:25:09.020Z,37.48
2022-08-11T06:27:37.712Z,36.52
2022-08-11T06:30:15.454Z,37.01
2022-08-11T06:32:45.749Z,37.64
2022-08-11T06:35:27.275Z,36.47
2022-08-11T06:38:16.222Z,36.41
2022-08-11T06:44:46.076Z,37.02
2022-08-11T06:47:17.157Z,35.85
2022-08-11T06:50:06.660Z,35.03
2022-08-11T06:52:38.413Z,33.91
2022-08-11T06:55:57.233Z,34.26
2022-08-11T06:58:20.669Z,32.84
2022-08-11T07:00:54.864Z,33.72
2022-08-11T07:03:23.491Z,33.46
2022-08-11T07:05:58.599Z,32.50
2022-08-11T07:08:44.026Z,32.42
2022-08-11T07:12:03.377Z,32.16
2022-08-11T07:14:50.859Z,31.47
2022-08-11T07:17:25.169Z,32.16
2022-08-11T07:20:16.648Z,32.26
2022-08-11T07:23:12.163Z,31.98
2022-08-11T07:26:01.127Z,31.75
2022-08-11T07:28:49.010Z,31.43
2022-08-11T07:31:40.614Z,31.96
2022-08-11T07:34:25.508Z,30.99
2022-08-11T07:37:00.740Z,30.81
2022-08-11T07:39:36.066Z,30.90
2022-08-11T07:42:11.739Z,31.21
2022-08-11T07:45:00.370Z,30.87
2022-08-11T07:47:47.450Z,29.94
2022-08-11T07:50:32.846Z,30.45
2022-08-11T07:53:01.271Z,29.67
2022-08-11T07:55:50.227Z,29.08
2022-08-11T07:58:52.324Z,28.71
2022-08-11T08:01:48.051Z,28.85
2022-08-11T08:04:36.906Z,29.01
2022-08-11T08:07:23.831Z,28.43
2022-08-11T08:10:14.060Z,27.89
2022-08-11T08:13:01.735Z,27.92
2022-08-11T08:15:47.081Z,28.57
2022-08-11T08:18:26.259Z,28.29
2022-08-11T08:20:56.624Z,27.94
2022-08-11T08:23:35.575Z,28.81
2022-08-11T08:26:26.423Z,28.62
2022-08-11T08:28:55.571Z,28.39
2022-08-11T08:31:23.197Z,28.40
2022-08-11T08:33:50.288Z,28.93
2022-08-11T08:36:20.069Z,28.29
2022-08-11T08:38:54.121Z,28.29
2022-08-11T08:41:27.059Z,28.02
2022-08-11T08:43:59.921Z,28.79
2022-08-11T08:46:51.310Z,28.71
2022-08-11T08:49:25.428Z,28.86
2022-08-11T08:52:21.070Z,28.51
2022-08-11T08:54:51.085Z,27.87
2022-08-11T08:57:20.080Z,27.92
2022-08-11T08:59:51.444Z,27.94
2022-08-11T09:02:44.112Z,27.36
2022-08-11T09:05:11.516Z,27.62
2022-08-11T09:07:40.691Z,26.81
2022-08-11T09:10:12.792Z,27.34
2022-08-11T09:12:43.043Z,27.42
2022-08-11T09:15:12.028Z,26.27
2022-08-11T09:17:58.268Z,26.58
2022-08-11T09:20:26.867Z,26.39
2022-08-11T09:26:30.928Z,26.17
2022-08-11T09:29:00.688Z,25.85
2022-08-11T09:31:34.618Z,25.66
2022-08-11T09:34:14.319Z,25.95
2022-08-11T09:37:02.629Z,25.72
2022-08-11T09:39:50.155Z,25.99
2022-08-11T09:42:23.452Z,24.37
2022-08-11T09:44:53.825Z,24.52
2022-08-11T09:47:26.509Z,24.53
2022-08-11T09:49:55.130Z,24.58
2022-08-11T09:52:24.410Z,23.96
2022-08-11T09:54:53.748Z,23.32
2022-08-11T09:57:41.015Z,23.19
2022-08-11T10:02:53.203Z,22.38
2022-08-11T10:05:39.718Z,22.56
2022-08-11T10:08:09.070Z,22.22
2022-08-11T10:10:39.262Z,22.66
2022-08-11T10:15:59.555Z,23.27
2022-08-11T10:18:53.365Z,23.69
2022-08-11T10:21:45.114Z,24.42
2022-08-11T10:24:30.850Z,23.66
2022-08-11T10:27:03.399Z,24.08
2022-08-11T10:29:57.265Z,24.46
2022-08-11T10:32:57.634Z,24.87
2022-08-11T10:35:27.322Z,24.96
2022-08-11T10:38:08.357Z,24.90
2022-08-11T10:40:39.587Z,24.42
2022-08-11T10:44:01.960Z,24.11
2022-08-11T10:46:35.091Z,23.74
2022-08-11T10:49:02.344Z,23.52
2022-08-11T10:51:53.683Z,23.95
2022-08-11T10:54:41.412Z,23.41
2022-08-11T10:57:27.775Z,22.78
2022-08-11T10:59:56.173Z,23.11
2022-08-11T11:03:22.611Z,21.96
2022-08-11T11:06:12.880Z,22.80
2022-08-11T11:09:06.944Z,21.85
2022-08-11T11:12:03.892Z,22.62
2022-08-11T11:14:58.134Z,22.36
2022-08-11T11:17:50.791Z,22.13
2022-08-11T11:20:34.644Z,21.87
2022-08-11T11:23:20.101Z,19.98
2022-08-11T11:26:06.942Z,20.90
2022-08-11T11:29:20.369Z,21.03
2022-08-11T11:32:17.104Z,20.46
2022-08-11T11:35:30.821Z,20.24
2022-08-11T11:38:04.612Z,20.15
2022-08-11T11:40:32.700Z,20.83
2022-08-11T11:43:01.204Z,21.00
2022-08-11T11:45:31.695Z,20.55
2022-08-11T11:48:00.258Z,19.91
2022-08-11T11:51:40.100Z,20.06
2022-08-11T11:54:27.655Z,18.91
2022-08-11T11:56:56.225Z,19.66
2022-08-11T11:59:44.389Z,20.06
2022-08-11T12:02:13.717Z,19.81
2022-08-11T12:04:48.766Z,19.90
2022-08-11T12:07:35.658Z,20.07
2022-08-11T12:10:03.177Z,20.37
2022-08-11T12:12:50.431Z,20.68
2022-08-11T12:15:19.862Z,21.06
2022-08-11T12:18:07.128Z,21.47
2022-08-11T12:20:34.442Z,20.92
2022-08-11T12:23:20.277Z,20.64
2022-08-11T12:26:25.887Z,20.87
2022-08-11T12:28:52.550Z,22.00
2022-08-11T12:31:22.991Z,21.21
2022-08-11T12:33:50.402Z,21.00
2022-08-11T12:36:19.311Z,20.81
2022-08-11T12:38:51.572Z,21.09
2022-08-11T12:41:40.037Z,20.76
2022-08-11T12:44:29.696Z,20.74
2022-08-11T12:47:00.130Z,20.04
2022-08-11T12:49:50.297Z,19.65
2022-08-11T12:52:25.374Z,20.55
2022-08-11T12:55:13.017Z,20.66
2022-08-11T12:58:04.457Z,20.77
2022-08-11T13:00:51.512Z,20.65
2022-08-11T13:03:41.178Z,21.28
2022-08-11T13:06:08.745Z,21.13
2022-08-11T13:08:39.389Z,20.96
2022-08-11T13:11:56.980Z,21.97
2022-08-11T13:14:15.209Z,22.05
2022-08-11T13:17:02.749Z,21.53
2022-08-11T13:19:31.392Z,20.70
2022-08-11T13:21:58.842Z,21.41
2022-08-11T13:24:25.734Z,21.69
2022-08-11T13:26:52.560Z,21.21
2022-08-11T13:29:23.994Z,21.47
2022-08-11T13:31:56.646Z,21.29
2022-08-11T13:34:26.795Z,21.19
2022-08-11T13:36:55.894Z,21.62
2022-08-11T13:39:25.190Z,22.19
2022-08-11T13:41:59.468Z,21.83
2022-08-11T13:44:30.644Z,21.35
2022-08-11T13:47:04.047Z,21.39
2022-08-11T13:49:39.720Z,21.39
2022-08-11T13:52:12.998Z,22.20
2022-08-11T13:54:41.348Z,22.67
2022-08-11T13:58:06.410Z,22.63
2022-08-11T14:00:09.761Z,22.45
2022-08-11T14:02:52.404Z,23.25
2022-08-11T14:05:25.626Z,23.81
2022-08-11T14:07:59.092Z,23.68
2022-08-11T14:10:30.198Z,24.33
2022-08-11T14:13:42.761Z,23.85
2022-08-11T14:16:32.003Z,23.32
2022-08-11T14:19:04.477Z,23.42
2022-08-11T14:24:07.274Z,23.54
2022-08-11T14:26:38.964Z,23.35
2022-08-11T14:29:14.948Z,23.67
2022-08-11T14:31:50.661Z,23.81
2022-08-11T14:34:21.333Z,23.94
2022-08-11T14:36:52.361Z,24.31
2022-08-11T14:39:44.414Z,23.97
2022-08-11T14:42:33.096Z,23.90
2022-08-11T14:45:54.185Z,24.15
2022-08-11T14:48:15.304Z,23.76
2022-08-11T14:50:42.253Z,23.39
2022-08-11T14:53:11.656Z,23.83
2022-08-11T14:56:41.094Z,23.59
2022-08-11T14:59:30.127Z,23.37
2022-08-11T15:02:46.227Z,23.90
2022-08-11T15:05:13.607Z,23.28
2022-08-11T15:07:40.955Z,23.13
2022-08-11T15:10:13.029Z,23.40
2022-08-11T15:12:42.019Z,23.00
2022-08-11T15:15:30.947Z,23.37
2022-08-11T15:18:00.553Z,23.52
2022-08-11T15:20:47.828Z,23.32
2022-08-11T15:23:39.304Z,23.85
2022-08-11T15:26:12.076Z,23.55
2022-08-11T15:29:04.073Z,23.30
2022-08-11T15:31:49.167Z,23.11
2022-08-11T15:34:37.769Z,22.90
2022-08-11T15:37:27.750Z,23.34
2022-08-11T15:40:32.214Z,23.03
2022-08-11T15:43:42.085Z,23.54
2022-08-11T15:46:14.640Z,23.38
2022-08-11T15:48:41.207Z,23.67
2022-08-11T15:51:25.469Z,23.55
2022-08-11T15:53:56.807Z,23.41
2022-08-11T15:56:27.832Z,24.17
2022-08-11T15:59:41.768Z,23.75
2022-08-11T16:02:25.481Z,24.07
2022-08-11T16:04:53.744Z,24.01
2022-08-11T16:07:26.728Z,24.05
2022-08-11T16:10:00.655Z,23.84
2022-08-11T16:12:35.797Z,23.95
2022-08-11T16:15:27.726Z,24.06
2022-08-11T16:18:01.265Z,24.29
2022-08-11T16:20:30.892Z,24.35
2022-08-11T16:23:02.939Z,24.40
2022-08-11T16:27:02.835Z,24.48
2022-08-11T16:28:22.613Z,24.17
2022-08-11T16:30:51.133Z,25.28
2022-08-11T16:33:48.983Z,25.48
2022-08-11T16:36:27.870Z,25.70
2022-08-11T16:38:57.327Z,25.87
2022-08-11T16:41:46.539Z,26.38
2022-08-11T16:44:37.551Z,26.72
2022-08-11T16:48:02.608Z,27.16
2022-08-11T16:50:07.670Z,26.75
2022-08-11T16:52:34.501Z,26.91
2022-08-11T16:55:03.810Z,26.62
2022-08-11T16:57:54.396Z,26.54
2022-08-11T17:00:21.311Z,26.52
2022-08-11T17:03:11.509Z,27.19
2022-08-11T17:06:11.927Z,27.74
2022-08-11T17:09:11.347Z,27.62
2022-08-11T17:12:12.386Z,28.21
2022-08-11T17:14:48.584Z,27.60
2022-08-11T17:17:19.075Z,27.43
2022-08-11T17:20:39.929Z,27.64
2022-08-11T17:23:00.112Z,27.14
2022-08-11T17:25:28.531Z,27.04
2022-08-11T17:28:00.359Z,26.98
2022-08-11T17:30:49.764Z,27.79
2022-08-11T17:33:35.176Z,28.91
2022-08-11T17:36:04.043Z,29.93
2022-08-11T17:38:34.322Z,30.70
2022-08-11T17:41:23.955Z,31.26
2022-08-11T17:44:13.769Z,31.60
2022-08-11T17:47:05.717Z,31.40
2022-08-11T17:49:37.826Z,32.40
2022-08-11T17:52:25.273Z,32.38
2022-08-11T17:55:13.412Z,32.54
2022-08-11T17:58:03.618Z,33.74
2022-08-11T18:00:31.854Z,33.65
2022-08-11T18:03:20.257Z,33.93
2022-08-11T18:05:51.313Z,35.45
2022-08-11T18:08:39.483Z,35.76
2022-08-11T18:12:10.880Z,35.20
2022-08-11T18:14:33.489Z,35.20
2022-08-11T18:17:18.983Z,35.14
2022-08-11T18:20:04.335Z,34.62
2022-08-11T18:23:00.903Z,34.69
2022-08-11T18:25:57.822Z,34.92
2022-08-11T18:28:51.980Z,35.44
2022-08-11T18:31:44.467Z,35.17
2022-08-11T18:34:35.039Z,34.91
2022-08-11T18:40:08.445Z,35.59
2022-08-11T18:42:56.354Z,34.77
2022-08-11T18:45:45.559Z,33.97
2022-08-11T18:48:37.145Z,33.84
2022-08-11T18:51:30.958Z,35.28
2022-08-11T18:54:26.450Z,35.08
2022-08-11T18:57:15.173Z,34.86
2022-08-11T19:00:02.368Z,35.32
2022-08-11T19:02:50.855Z,35.59
2022-08-11T19:06:32.385Z,35.28
2022-08-11T19:08:49.800Z,34.76
2022-08-11T19:14:13.143Z,33.81
2022-08-11T19:17:01.802Z,34.01
2022-08-11T19:19:49.766Z,34.82
2022-08-11T19:22:36.386Z,35.35
2022-08-11T19:25:25.823Z,34.42
2022-08-11T19:28:12.815Z,34.63
2022-08-11T19:30:59.954Z,34.62
2022-08-11T19:34:02.808Z,34.16
2022-08-11T19:36:54.215Z,34.55
2022-08-11T19:39:40.560Z,34.68
2022-08-11T19:42:28.115Z,34.28
2022-08-11T19:45:14.621Z,35.32
2022-08-11T19:48:30.177Z,34.48
2022-08-11T19:51:10.131Z,34.01
2022-08-11T19:53:59.177Z,34.29
2022-08-11T19:56:45.003Z,34.54
2022-08-11T19:59:31.108Z,34.79
2022-08-11T20:02:16.384Z,34.70
2022-08-11T20:05:01.730Z,34.48
2022-08-11T20:07:49.238Z,35.25
2022-08-11T20:10:38.686Z,34.38
2022-08-11T20:13:29.766Z,35.56
2022-08-11T20:16:20.775Z,35.60
2022-08-11T20:19:09.060Z,35.81
2022-08-11T20:21:56.193Z,35.50
2022-08-11T20:24:43.206Z,34.96
2022-08-11T20:27:30.065Z,35.17
2022-08-11T20:30:17.534Z,34.95
2022-08-11T20:33:03.583Z,35.01
2022-08-11T20:35:51.410Z,34.77
2022-08-11T20:38:39.421Z,36.23
2022-08-11T20:41:27.298Z,35.90
2022-08-11T20:44:15.636Z,35.80
2022-08-11T20:47:04.456Z,36.23
2022-08-11T20:50:00.058Z,36.73
2022-08-11T20:52:48.694Z,36.34
2022-08-11T20:55:46.294Z,36.90
2022-08-11T20:59:13.436Z,36.80
2022-08-11T21:01:45.924Z,35.86
2022-08-11T21:04:32.581Z,35.38
2022-08-11T21:07:29.136Z,35.54
2022-08-11T21:10:23.250Z,35.41
2022-08-11T21:13:25.619Z,35.23
2022-08-11T21:16:26.070Z,35.00
2022-08-11T21:19:55.140Z,35.48
2022-08-11T21:22:35.634Z,35.35
2022-08-11T21:25:22.683Z,35.13
2022-08-11T21:28:18.433Z,35.95
2022-08-11T21:31:04.810Z,37.67
2022-08-11T21:33:50.352Z,36.14
2022-08-11T21:36:37.952Z,36.49
2022-08-11T21:39:25.447Z,36.91
2022-08-11T21:42:13.109Z,35.97
2022-08-11T21:45:01.251Z,37.21
2022-08-11T21:47:48.745Z,37.10
2022-08-11T21:50:34.051Z,37.88
2022-08-11T21:53:20.122Z,37.89
2022-08-11T21:56:06.541Z,37.71
2022-08-11T21:58:52.987Z,37.20
2022-08-11T22:01:40.154Z,37.85
2022-08-11T22:04:25.942Z,38.01
2022-08-11T22:07:11.896Z,37.57
2022-08-11T22:09:57.374Z,37.39
2022-08-11T22:12:45.216Z,37.61
2022-08-11T22:15:31.889Z,38.14
2022-08-11T22:18:19.911Z,37.28
2022-08-11T22:21:06.366Z,37.53
2022-08-11T22:23:56.350Z,38.39
2022-08-11T22:26:42.779Z,38.33
2022-08-11T22:29:50.580Z,37.88
2022-08-11T22:32:38.165Z,37.93
2022-08-11T22:35:24.899Z,37.99
2022-08-11T22:38:16.036Z,37.39
2022-08-11T22:41:01.506Z,36.93
2022-08-11T22:43:47.105Z,36.60
2022-08-11T22:46:34.030Z,36.42
2022-08-11T22:49:21.430Z,36.39
2022-08-11T22:52:08.772Z,36.71
2022-08-11T22:54:56.237Z,37.24
2022-08-11T22:58:00.482Z,37.76
2022-08-11T23:00:47.438Z,37.68
2022-08-11T23:03:37.992Z,38.16
2022-08-11T23:06:24.113Z,37.42
2022-08-11T23:09:09.709Z,38.09
2022-08-11T23:12:02.544Z,38.18
2022-08-11T23:14:55.348Z,38.14
2022-08-11T23:17:42.242Z,38.26
2022-08-11T23:20:34.334Z,37.90
2022-08-11T23:23:35.573Z,37.95
2022-08-11T23:26:22.731Z,38.34
2022-08-11T23:29:08.284Z,38.09
2022-08-11T23:31:54.895Z,38.25
2022-08-11T23:35:37.065Z,38.18
2022-08-11T23:38:24.619Z,38.37
2022-08-11T23:41:32.461Z,38.74
2022-08-11T23:44:23.266Z,39.12
2022-08-11T23:47:12.324Z,38.39
2022-08-11T23:49:58.517Z,38.64
2022-08-11T23:52:46.202Z,39.11
2022-08-11T23:55:31.747Z,38.67
2022-08-11T23:58:17.625Z,39.34
